createdAt,value
2019-03-21T00:01:30.657Z,14.25
2019-03-21T00:04:05.251Z,20.20
2019-03-21T00:06:33.751Z,21.50
2019-03-21T00:09:02.618Z,17.80
2019-03-21T00:11:59.298Z,20.90
2019-03-21T00:14:43.203Z,27.77
2019-03-21T00:17:32.594Z,30.10
2019-03-21T00:20:01.183Z,26.25
2019-03-21T00:22:29.657Z,31.90
2019-03-21T00:24:58.216Z,27.45
2019-03-21T00:27:26.818Z,26.75
2019-03-21T00:29:55.482Z,28.27
2019-03-21T00:32:23.903Z,33.02
2019-03-21T00:34:52.443Z,24.87
2019-03-21T00:37:20.943Z,25.50
2019-03-21T00:39:49.494Z,26.55
2019-03-21T00:42:18.101Z,25.90
2019-03-21T00:44:46.503Z,26.33
2019-03-21T00:47:15.064Z,25.68
2019-03-21T00:49:43.642Z,21.80
2019-03-21T00:52:12.223Z,22.07
2019-03-21T00:54:40.775Z,23.07
2019-03-21T00:57:09.204Z,24.23
2019-03-21T00:59:37.782Z,21.20
2019-03-21T01:02:06.203Z,19.23
2019-03-21T01:04:34.794Z,27.95
2019-03-21T01:07:03.408Z,21.55
2019-03-21T01:09:32.088Z,25.02
2019-03-21T01:12:00.671Z,23.65
2019-03-21T01:14:29.999Z,28.83
2019-03-21T01:16:58.857Z,30.02
2019-03-21T01:19:28.450Z,28.75
2019-03-21T01:21:56.942Z,22.62
2019-03-21T01:24:25.523Z,28.40
2019-03-21T01:26:54.074Z,24.87
2019-03-21T01:29:22.561Z,24.87
2019-03-21T01:31:51.164Z,21.55
2019-03-21T01:34:19.595Z,23.87
2019-03-21T01:36:48.228Z,22.65
2019-03-21T01:39:17.766Z,27.98
2019-03-21T01:41:46.412Z,29.32
2019-03-21T01:44:14.883Z,26.70
2019-03-21T01:46:43.411Z,28.02
2019-03-21T01:49:11.953Z,24.23
2019-03-21T01:51:40.532Z,24.07
2019-03-21T01:54:09.036Z,26.12
2019-03-21T01:56:37.610Z,26.57
2019-03-21T01:59:06.147Z,24.72
2019-03-21T02:01:34.727Z,24.02
2019-03-21T02:04:03.307Z,25.25
2019-03-21T02:06:31.880Z,23.27
2019-03-21T02:09:00.471Z,25.02
2019-03-21T02:11:29.053Z,25.55
2019-03-21T02:13:57.565Z,25.75
2019-03-21T02:16:26.111Z,23.65
2019-03-21T02:18:54.619Z,25.32
2019-03-21T02:21:23.209Z,25.60
2019-03-21T02:23:51.650Z,26.70
2019-03-21T02:26:20.278Z,24.82
2019-03-21T02:28:48.841Z,27.87
2019-03-21T02:31:17.439Z,24.70
2019-03-21T02:33:45.918Z,23.90
2019-03-21T02:36:14.680Z,22.93
2019-03-21T02:38:43.153Z,23.50
2019-03-21T02:41:16.542Z,22.25
2019-03-21T02:43:45.043Z,21.50
2019-03-21T02:46:13.448Z,19.77
2019-03-21T02:48:41.971Z,20.45
2019-03-21T02:51:10.762Z,21.80
2019-03-21T02:53:39.366Z,21.87
2019-03-21T02:56:13.699Z,22.65
2019-03-21T02:58:42.144Z,21.87
2019-03-21T03:01:10.718Z,22.75
2019-03-21T03:03:39.324Z,22.22
2019-03-21T03:06:07.882Z,23.62
2019-03-21T03:08:36.594Z,23.77
2019-03-21T03:11:13.995Z,22.73
2019-03-21T03:13:45.644Z,23.95
2019-03-21T03:16:14.213Z,25.17
2019-03-21T03:18:42.866Z,24.37
2019-03-21T03:21:11.315Z,24.92
2019-03-21T03:23:39.854Z,24.85
2019-03-21T03:26:08.255Z,23.22
2019-03-21T03:28:40.091Z,23.70
2019-03-21T03:33:36.520Z,19.40
2019-03-21T03:36:05.121Z,20.43
2019-03-21T03:38:33.620Z,20.90
2019-03-21T03:41:04.554Z,21.87
2019-03-21T03:43:33.010Z,17.40
2019-03-21T03:46:01.494Z,22.32
2019-03-21T03:48:29.987Z,21.45
2019-03-21T03:50:58.552Z,21.27
2019-03-21T03:53:27.028Z,21.70
2019-03-21T03:55:55.623Z,21.12
2019-03-21T03:58:25.726Z,20.08
2019-03-21T04:00:54.222Z,19.57
2019-03-21T04:03:22.761Z,20.10
2019-03-21T04:05:51.371Z,19.10
2019-03-21T04:08:20.030Z,18.90
2019-03-21T04:10:49.998Z,18.98
2019-03-21T04:13:18.519Z,20.75
2019-03-21T04:15:53.320Z,20.20
2019-03-21T04:18:19.282Z,20.32
2019-03-21T04:21:05.533Z,20.37
2019-03-21T04:23:34.172Z,20.02
2019-03-21T04:26:05.892Z,21.65
2019-03-21T04:28:34.559Z,20.15
2019-03-21T04:31:03.010Z,21.35
2019-03-21T04:33:31.578Z,21.60
2019-03-21T04:36:00.155Z,22.30
2019-03-21T04:38:28.738Z,21.45
2019-03-21T04:40:57.213Z,19.70
2019-03-21T04:43:25.763Z,21.05
2019-03-21T04:46:02.924Z,21.42
2019-03-21T04:48:24.998Z,21.05
2019-03-21T04:50:53.430Z,22.90
2019-03-21T04:53:22.047Z,34.08
2019-03-21T04:55:50.646Z,25.68
2019-03-21T04:58:19.115Z,24.60
2019-03-21T05:00:56.486Z,28.32
2019-03-21T05:03:27.550Z,32.67
2019-03-21T05:05:56.000Z,43.73
2019-03-21T05:08:24.475Z,24.72
2019-03-21T05:10:52.893Z,28.67
2019-03-21T05:13:21.439Z,24.35
2019-03-21T05:15:52.282Z,26.52
2019-03-21T05:18:30.291Z,23.53
2019-03-21T05:21:00.159Z,23.62
2019-03-21T05:23:28.695Z,23.60
2019-03-21T05:25:57.247Z,24.35
2019-03-21T05:28:25.857Z,24.07
2019-03-21T05:31:06.806Z,24.98
2019-03-21T05:33:35.227Z,23.20
2019-03-21T05:36:03.787Z,22.55
2019-03-21T05:38:33.295Z,31.15
2019-03-21T05:41:01.843Z,22.35
2019-03-21T05:43:48.893Z,21.37
2019-03-21T05:46:26.608Z,25.32
2019-03-21T05:48:49.034Z,23.45
2019-03-21T05:51:17.486Z,26.82
2019-03-21T05:53:46.078Z,23.25
2019-03-21T05:56:14.659Z,20.72
2019-03-21T05:58:43.137Z,19.65
2019-03-21T06:01:12.557Z,22.35
2019-03-21T06:03:51.638Z,21.00
2019-03-21T06:06:41.752Z,23.90
2019-03-21T06:09:13.472Z,37.40
2019-03-21T06:14:11.387Z,25.50
2019-03-21T06:16:39.762Z,19.82
2019-03-21T06:19:17.531Z,22.82
2019-03-21T06:21:49.223Z,18.40
2019-03-21T06:24:40.042Z,22.15
2019-03-21T06:27:17.006Z,18.65
2019-03-21T06:29:45.507Z,19.85
2019-03-21T06:32:14.127Z,15.13
2019-03-21T06:34:42.625Z,14.53
2019-03-21T06:37:11.291Z,40.20
2019-03-21T06:39:39.805Z,20.57
2019-03-21T06:42:08.354Z,13.70
2019-03-21T06:44:36.784Z,13.98
2019-03-21T06:47:05.340Z,16.37
2019-03-21T06:49:36.223Z,13.75
2019-03-21T06:52:04.831Z,14.28
2019-03-21T06:54:33.335Z,12.78
2019-03-21T06:57:02.722Z,14.65
2019-03-21T06:59:31.523Z,21.15
2019-03-21T07:01:59.955Z,22.77
2019-03-21T07:04:28.451Z,13.15
2019-03-21T07:07:07.557Z,15.10
2019-03-21T07:09:29.130Z,14.45
2019-03-21T07:11:57.295Z,11.40
2019-03-21T07:14:25.799Z,9.25
2019-03-21T07:17:00.306Z,14.18
2019-03-21T07:19:24.442Z,12.90
2019-03-21T07:21:52.942Z,9.55
2019-03-21T07:24:21.406Z,9.93
2019-03-21T07:26:49.839Z,10.43
2019-03-21T07:29:18.270Z,10.48
2019-03-21T07:31:46.869Z,11.28
2019-03-21T07:34:15.346Z,10.72
2019-03-21T07:36:43.908Z,10.93
2019-03-21T07:39:12.329Z,9.85
2019-03-21T07:41:40.832Z,12.13
2019-03-21T07:44:09.366Z,15.48
2019-03-21T07:46:37.845Z,15.00
2019-03-21T07:49:06.412Z,13.40
2019-03-21T07:51:34.983Z,14.60
2019-03-21T07:54:03.424Z,17.70
2019-03-21T07:56:31.965Z,18.37
2019-03-21T07:59:02.681Z,19.73
2019-03-21T08:01:31.178Z,15.28
2019-03-21T08:03:59.539Z,21.68
2019-03-21T08:06:27.976Z,45.38
2019-03-21T08:08:56.514Z,37.80
2019-03-21T08:11:25.027Z,45.43
2019-03-21T08:13:54.674Z,30.35
2019-03-21T08:16:23.108Z,29.15
2019-03-21T08:18:51.659Z,57.88
2019-03-21T08:21:20.144Z,35.00
2019-03-21T08:23:48.613Z,24.37
2019-03-21T08:26:17.194Z,18.25
2019-03-21T08:28:45.679Z,32.08
2019-03-21T08:31:14.504Z,24.37
2019-03-21T08:33:43.327Z,32.28
2019-03-21T08:36:11.803Z,24.65
2019-03-21T08:38:40.309Z,15.55
2019-03-21T08:41:08.734Z,18.45
2019-03-21T08:43:37.234Z,23.12
2019-03-21T08:46:05.662Z,17.77
2019-03-21T08:48:34.121Z,17.25
2019-03-21T08:51:08.247Z,18.73
2019-03-21T08:53:32.821Z,14.00
2019-03-21T08:56:01.356Z,14.73
2019-03-21T08:58:29.982Z,14.45
2019-03-21T09:00:58.460Z,13.30
2019-03-21T09:03:26.938Z,15.08
2019-03-21T09:05:55.392Z,19.75
2019-03-21T09:08:23.981Z,16.12
2019-03-21T09:10:52.454Z,11.85
2019-03-21T09:13:21.065Z,11.97
2019-03-21T09:15:49.482Z,11.95
2019-03-21T09:18:17.983Z,10.65
2019-03-21T09:20:46.498Z,8.68
2019-03-21T09:23:14.957Z,13.30
2019-03-21T09:25:43.456Z,9.90
2019-03-21T09:28:14.124Z,15.25
2019-03-21T09:30:42.351Z,9.08
2019-03-21T09:33:10.839Z,9.10
2019-03-21T09:35:39.306Z,8.80
2019-03-21T09:38:07.824Z,8.63
2019-03-21T09:40:36.347Z,8.40
2019-03-21T09:43:04.829Z,10.10
2019-03-21T09:45:33.337Z,9.10
2019-03-21T09:48:03.376Z,11.28
2019-03-21T09:50:31.879Z,12.93
2019-03-21T09:53:03.081Z,14.85
2019-03-21T09:55:31.557Z,54.33
2019-03-21T09:57:59.995Z,47.83
2019-03-21T10:00:36.196Z,19.80
2019-03-21T10:03:05.489Z,20.70
2019-03-21T10:05:34.069Z,32.98
2019-03-21T10:08:02.937Z,23.35
2019-03-21T10:10:37.374Z,10.00
2019-03-21T10:13:06.061Z,10.08
2019-03-21T10:15:34.567Z,10.35
2019-03-21T10:18:03.092Z,25.95
2019-03-21T10:20:31.622Z,10.23
2019-03-21T10:23:00.044Z,7.42
2019-03-21T10:25:28.660Z,7.15
2019-03-21T10:27:58.818Z,16.02
2019-03-21T10:30:32.654Z,27.52
2019-03-21T10:33:01.165Z,16.57
2019-03-21T10:35:29.716Z,11.80
2019-03-21T10:37:58.489Z,8.68
2019-03-21T10:40:27.083Z,13.83
2019-03-21T10:42:55.593Z,5.80
2019-03-21T10:45:24.079Z,10.05
2019-03-21T10:47:52.548Z,5.83
2019-03-21T10:50:30.010Z,7.30
2019-03-21T10:52:58.903Z,6.58
2019-03-21T10:55:29.135Z,13.13
2019-03-21T10:57:57.725Z,8.20
2019-03-21T11:00:26.414Z,7.97
2019-03-21T11:02:54.841Z,10.28
2019-03-21T11:05:23.501Z,7.72
2019-03-21T11:07:52.055Z,4.40
2019-03-21T11:10:20.591Z,5.78
2019-03-21T11:12:49.207Z,5.97
2019-03-21T11:15:17.701Z,7.15
2019-03-21T11:17:48.202Z,6.85
2019-03-21T11:20:25.991Z,5.87
2019-03-21T11:22:55.754Z,9.10
2019-03-21T11:25:24.423Z,9.70
2019-03-21T11:27:52.992Z,9.20
2019-03-21T11:30:29.687Z,8.80
2019-03-21T11:32:58.116Z,6.45
2019-03-21T11:35:26.708Z,7.20
2019-03-21T11:37:55.204Z,6.05
2019-03-21T11:40:23.651Z,6.75
2019-03-21T11:42:52.233Z,9.03
2019-03-21T11:45:20.712Z,6.95
2019-03-21T11:47:49.232Z,6.40
2019-03-21T11:50:17.700Z,8.35
2019-03-21T11:52:46.179Z,8.08
2019-03-21T11:55:14.659Z,5.70
2019-03-21T11:57:43.107Z,6.72
2019-03-21T12:00:13.748Z,5.97
2019-03-21T12:02:42.166Z,7.17
2019-03-21T12:05:10.664Z,6.10
2019-03-21T12:07:39.171Z,7.80
2019-03-21T12:10:11.994Z,8.55
2019-03-21T12:12:40.463Z,9.55
2019-03-21T12:15:10.610Z,10.85
2019-03-21T12:17:39.112Z,13.18
2019-03-21T12:20:09.555Z,9.60
2019-03-21T12:22:38.035Z,8.53
2019-03-21T12:25:07.306Z,8.93
2019-03-21T12:27:35.841Z,8.38
2019-03-21T12:30:06.985Z,7.17
2019-03-21T12:32:35.514Z,9.35
2019-03-21T12:35:06.296Z,10.63
2019-03-21T12:37:34.698Z,7.10
2019-03-21T12:40:04.687Z,9.70
2019-03-21T12:42:33.139Z,15.23
2019-03-21T12:45:01.748Z,8.63
2019-03-21T12:47:31.405Z,8.95
2019-03-21T12:50:00.421Z,7.83
2019-03-21T12:53:28.394Z,7.58
2019-03-21T12:54:59.955Z,5.55
2019-03-21T12:57:28.454Z,7.92
2019-03-21T12:59:56.924Z,18.17
2019-03-21T13:02:32.252Z,14.33
2019-03-21T13:04:55.596Z,13.10
2019-03-21T13:07:24.046Z,16.65
2019-03-21T13:09:52.651Z,13.38
2019-03-21T13:12:21.161Z,8.73
2019-03-21T13:14:49.679Z,14.55
2019-03-21T13:17:18.106Z,17.30
2019-03-21T13:19:46.671Z,11.03
2019-03-21T13:22:15.153Z,14.25
2019-03-21T13:24:43.657Z,9.15
2019-03-21T13:27:12.057Z,10.10
2019-03-21T13:29:40.596Z,15.23
2019-03-21T13:32:09.106Z,29.00
2019-03-21T13:34:37.680Z,17.77
2019-03-21T13:37:06.160Z,12.35
2019-03-21T13:39:34.583Z,9.90
2019-03-21T13:42:03.217Z,9.33
2019-03-21T13:44:31.694Z,11.43
2019-03-21T13:47:01.175Z,10.80
2019-03-21T13:49:29.671Z,11.28
2019-03-21T13:51:58.153Z,11.25
2019-03-21T13:54:26.737Z,14.33
2019-03-21T13:56:55.147Z,14.07
2019-03-21T13:59:23.590Z,10.32
2019-03-21T14:01:52.071Z,9.63
2019-03-21T14:04:20.623Z,9.48
2019-03-21T14:06:49.064Z,9.98
2019-03-21T14:09:20.155Z,14.68
2019-03-21T14:11:47.803Z,10.95
2019-03-21T14:14:16.309Z,12.82
2019-03-21T14:16:44.788Z,7.33
2019-03-21T14:19:13.267Z,8.28
2019-03-21T14:21:41.746Z,9.23
2019-03-21T14:24:10.215Z,8.10
2019-03-21T14:26:38.643Z,8.10
2019-03-21T14:29:12.578Z,8.75
2019-03-21T14:31:37.291Z,7.45
2019-03-21T14:34:05.751Z,6.90
2019-03-21T14:36:34.235Z,6.17
2019-03-21T14:39:02.840Z,7.30
2019-03-21T14:41:31.307Z,6.08
2019-03-21T14:43:59.798Z,12.90
2019-03-21T14:46:28.276Z,17.77
2019-03-21T14:48:56.686Z,18.90
2019-03-21T14:51:25.233Z,36.65
2019-03-21T14:53:53.712Z,24.90
2019-03-21T14:56:22.294Z,38.60
2019-03-21T14:58:50.790Z,37.73
2019-03-21T15:01:19.356Z,54.85
2019-03-21T15:03:47.836Z,48.30
2019-03-21T15:06:16.415Z,59.20
2019-03-21T15:08:44.911Z,16.87
2019-03-21T15:11:17.201Z,50.95
2019-03-21T15:13:43.651Z,16.15
2019-03-21T15:16:12.278Z,22.13
2019-03-21T15:18:40.756Z,18.70
2019-03-21T15:21:09.236Z,18.55
2019-03-21T15:23:41.009Z,17.80
2019-03-21T15:26:07.853Z,22.67
2019-03-21T15:28:38.673Z,15.65
2019-03-21T15:31:07.199Z,9.27
2019-03-21T15:33:36.214Z,25.55
2019-03-21T15:36:04.717Z,16.50
2019-03-21T15:38:33.155Z,79.70
2019-03-21T15:41:01.777Z,25.88
2019-03-21T15:43:30.229Z,57.33
2019-03-21T15:45:58.836Z,50.70
2019-03-21T15:48:27.318Z,67.03
2019-03-21T15:51:04.351Z,44.38
2019-03-21T15:53:25.884Z,54.53
2019-03-21T15:55:55.313Z,31.87
2019-03-21T15:58:23.869Z,30.55
2019-03-21T16:00:52.347Z,23.67
2019-03-21T16:03:20.852Z,24.25
2019-03-21T16:05:49.407Z,15.10
2019-03-21T16:08:18.017Z,27.62
2019-03-21T16:10:46.468Z,17.75
2019-03-21T16:13:14.899Z,7.75
2019-03-21T16:15:43.345Z,18.10
2019-03-21T16:18:11.931Z,17.62
2019-03-21T16:20:40.384Z,32.70
2019-03-21T16:23:08.916Z,21.73
2019-03-21T16:25:37.340Z,27.52
2019-03-21T16:28:05.825Z,17.32
2019-03-21T16:30:34.258Z,32.93
2019-03-21T16:33:02.779Z,23.07
2019-03-21T16:35:31.255Z,28.00
2019-03-21T16:38:01.190Z,9.55
2019-03-21T16:40:29.649Z,27.98
2019-03-21T16:42:58.131Z,91.70
2019-03-21T16:45:26.628Z,27.27
2019-03-21T16:47:56.278Z,94.55
2019-03-21T16:50:24.925Z,66.05
2019-03-21T16:52:53.491Z,32.38
2019-03-21T16:55:21.987Z,6.72
2019-03-21T16:57:50.383Z,37.05
2019-03-21T17:00:19.970Z,15.78
2019-03-21T17:02:48.527Z,16.05
2019-03-21T17:05:16.964Z,29.77
2019-03-21T17:07:45.506Z,58.35
2019-03-21T17:10:22.852Z,111.83
2019-03-21T17:12:56.083Z,11.25
2019-03-21T17:15:24.637Z,22.30
2019-03-21T17:17:53.118Z,11.50
2019-03-21T17:20:21.606Z,13.60
2019-03-21T17:22:50.071Z,20.65
2019-03-21T17:25:18.567Z,10.63
2019-03-21T17:27:47.059Z,8.68
2019-03-21T17:30:17.060Z,8.48
2019-03-21T17:32:45.551Z,10.30
2019-03-21T17:35:13.964Z,17.42
2019-03-21T17:37:42.512Z,8.98
2019-03-21T17:40:13.164Z,8.05
2019-03-21T17:42:43.979Z,7.67
2019-03-21T17:45:19.636Z,11.87
2019-03-21T17:47:48.103Z,9.63
2019-03-21T17:50:18.002Z,17.52
2019-03-21T17:52:46.677Z,44.03
2019-03-21T17:55:15.355Z,48.92
2019-03-21T17:57:43.859Z,26.97
2019-03-21T18:00:32.725Z,11.60
2019-03-21T18:03:01.194Z,8.33
2019-03-21T18:05:29.747Z,11.10
2019-03-21T18:07:59.941Z,16.17
2019-03-21T18:10:31.764Z,12.00
2019-03-21T18:13:00.336Z,10.75
2019-03-21T18:15:28.916Z,13.10
2019-03-21T18:17:57.367Z,10.08
2019-03-21T18:20:25.940Z,13.28
2019-03-21T18:22:54.636Z,13.10
2019-03-21T18:25:23.215Z,14.80
2019-03-21T18:27:51.643Z,11.78
2019-03-21T18:30:20.202Z,15.18
2019-03-21T18:32:48.607Z,15.00
2019-03-21T18:35:17.135Z,13.62
2019-03-21T18:37:45.606Z,14.33
2019-03-21T18:40:14.187Z,15.70
2019-03-21T18:42:42.695Z,14.78
2019-03-21T18:45:13.373Z,15.70
2019-03-21T18:47:41.905Z,17.25
2019-03-21T18:50:16.835Z,17.40
2019-03-21T18:52:46.319Z,20.10
2019-03-21T18:55:14.715Z,13.98
2019-03-21T18:57:43.149Z,13.20
2019-03-21T19:00:19.230Z,13.83
2019-03-21T19:02:47.657Z,16.93
2019-03-21T19:05:16.211Z,16.15
2019-03-21T19:07:44.591Z,16.75
2019-03-21T19:10:13.936Z,15.15
2019-03-21T19:12:42.451Z,16.65
2019-03-21T19:15:16.576Z,17.65
2019-03-21T19:17:44.963Z,18.45
2019-03-21T19:20:15.615Z,18.35
2019-03-21T19:22:44.166Z,19.70
2019-03-21T19:25:18.609Z,15.68
2019-03-21T19:27:42.859Z,16.32
2019-03-21T19:30:16.299Z,19.15
2019-03-21T19:32:44.915Z,18.90
2019-03-21T19:35:13.493Z,19.12
2019-03-21T19:37:41.938Z,15.23
2019-03-21T19:40:13.059Z,19.98
2019-03-21T19:42:41.467Z,16.48
2019-03-21T19:45:11.911Z,22.50
2019-03-21T19:47:40.424Z,18.48
2019-03-21T19:50:20.811Z,19.67
2019-03-21T19:52:49.335Z,22.45
2019-03-21T19:55:25.864Z,20.97
2019-03-21T19:57:47.933Z,20.02
2019-03-21T20:00:23.474Z,19.65
2019-03-21T20:02:52.258Z,26.60
2019-03-21T20:05:23.225Z,19.42
2019-03-21T20:07:51.802Z,16.93
2019-03-21T20:10:21.687Z,18.82
2019-03-21T20:12:50.169Z,16.05
2019-03-21T20:15:18.855Z,18.92
2019-03-21T20:17:47.438Z,14.87
2019-03-21T20:20:18.932Z,15.08
2019-03-21T20:22:47.596Z,15.65
2019-03-21T20:25:16.178Z,16.50
2019-03-21T20:27:44.758Z,16.00
2019-03-21T20:30:18.843Z,15.32
2019-03-21T20:32:47.346Z,14.73
2019-03-21T20:35:15.904Z,15.38
2019-03-21T20:37:44.405Z,15.50
2019-03-21T20:40:17.618Z,14.83
2019-03-21T20:42:46.150Z,14.35
2019-03-21T20:45:19.071Z,15.00
2019-03-21T20:47:47.639Z,14.87
2019-03-21T20:50:16.679Z,15.08
2019-03-21T20:52:45.314Z,15.15
2019-03-21T20:55:13.799Z,15.98
2019-03-21T20:57:42.379Z,14.93
2019-03-21T21:00:19.353Z,15.80
2019-03-21T21:02:47.876Z,14.78
2019-03-21T21:05:18.353Z,16.12
2019-03-21T21:07:46.923Z,15.48
2019-03-21T21:10:15.687Z,14.47
2019-03-21T21:12:44.282Z,16.17
2019-03-21T21:15:14.554Z,17.07
2019-03-21T21:17:43.315Z,13.93
2019-03-21T21:20:13.941Z,14.73
2019-03-21T21:22:42.806Z,13.15
2019-03-21T21:25:11.415Z,13.43
2019-03-21T21:27:48.740Z,13.80
2019-03-21T21:30:13.079Z,14.13
2019-03-21T21:32:41.495Z,12.95
2019-03-21T21:35:09.990Z,13.03
2019-03-21T21:37:38.493Z,13.32
2019-03-21T21:40:08.154Z,12.88
2019-03-21T21:42:36.678Z,13.03
2019-03-21T21:45:07.849Z,13.25
2019-03-21T21:47:36.358Z,12.60
2019-03-21T21:50:07.288Z,11.83
2019-03-21T21:52:41.940Z,11.68
2019-03-21T21:55:06.746Z,11.43
2019-03-21T21:57:35.172Z,11.00
2019-03-21T22:00:06.084Z,11.35
2019-03-21T22:02:34.881Z,12.23
2019-03-21T22:05:04.484Z,10.23
2019-03-21T22:07:32.886Z,9.90
2019-03-21T22:10:01.414Z,10.43
2019-03-21T22:12:29.844Z,11.33
2019-03-21T22:14:58.338Z,10.38
2019-03-21T22:17:26.794Z,10.15
2019-03-21T22:19:55.359Z,10.68
2019-03-21T22:22:23.810Z,9.80
2019-03-21T22:24:52.301Z,10.08
2019-03-21T22:27:20.786Z,10.43
2019-03-21T22:29:49.380Z,10.08
2019-03-21T22:32:17.829Z,8.33
2019-03-21T22:34:46.304Z,10.03
2019-03-21T22:37:14.812Z,8.75
2019-03-21T22:39:43.291Z,8.43
2019-03-21T22:42:11.714Z,8.85
2019-03-21T22:44:40.221Z,7.97
2019-03-21T22:47:08.805Z,8.70
2019-03-21T22:49:37.279Z,8.18
2019-03-21T22:52:05.776Z,7.80
2019-03-21T22:54:34.244Z,7.20
2019-03-21T22:57:02.821Z,7.30
2019-03-21T22:59:31.296Z,7.10
2019-03-21T23:01:59.806Z,6.20
2019-03-21T23:04:28.229Z,6.78
2019-03-21T23:06:56.764Z,6.62
2019-03-21T23:09:25.229Z,6.80
2019-03-21T23:11:53.747Z,6.35
2019-03-21T23:14:22.200Z,6.10
2019-03-21T23:16:50.680Z,6.45
2019-03-21T23:19:19.159Z,6.47
2019-03-21T23:21:47.553Z,6.08
2019-03-21T23:24:16.015Z,6.95
2019-03-21T23:26:52.940Z,6.55
2019-03-21T23:29:14.609Z,6.17
2019-03-21T23:31:43.035Z,6.85
2019-03-21T23:34:11.578Z,5.60
2019-03-21T23:36:40.048Z,5.50
2019-03-21T23:39:09.614Z,4.45
2019-03-21T23:41:38.132Z,5.00
2019-03-21T23:44:06.613Z,4.28
2019-03-21T23:46:35.080Z,4.37
2019-03-21T23:49:03.511Z,4.33
2019-03-21T23:51:31.945Z,3.77
2019-03-21T23:54:00.358Z,4.35
2019-03-21T23:56:28.909Z,4.40
2019-03-21T23:58:57.383Z,4.85
